Address 0x942c49276b6c3f45a5571c4c1a19b1a7ef3bb3cc

 
Txn Hash Method
Block
From
To
Value [Txn Fee]
0x33e8c1ee856165ae39f87ab467f358774d1a7fd1a898ec4fc92844cd470fbd29Transfer202989792021-10-17 3:32:458 mins ago0x1e05b0bcfac02c59fa995269029ec3a43f4b18a4 IN 0x942c49276b6c3f45a5571c4c1a19b1a7ef3bb3cc46.4958 MATIC0.0042
0xc14c8a6a5afb6870ac66e3e15c3d7f0d76664470aac58023a9d93056570a4617Transfer202989792021-10-17 3:32:458 mins ago0x535b174e3d6d8f8f8c795af0ef4bcc516daea8e5 IN 0x942c49276b6c3f45a5571c4c1a19b1a7ef3bb3cc359.9958 MATIC0.0042
0x017d020ef6335269353ea16774aa989271afd387d60794bf6b4c2054b00ff565Transfer202987512021-10-17 3:22:4518 mins ago0x26fcfd21510c7fa7875443b99ef1ac44b964e3d7 IN 0x942c49276b6c3f45a5571c4c1a19b1a7ef3bb3cc35.088318 MATIC0.0042
0x1a33313bd4051f7dd238bd136b96ebf2852c641191b72e681c699563fc1b2415Transfer202987512021-10-17 3:22:4518 mins ago0x9171b6df13037e6371b8f1f6d8480ca5571f1d3b IN 0x942c49276b6c3f45a5571c4c1a19b1a7ef3bb3cc39.9958 MATIC0.0042
0x9b7c4cebebbde2cca6d25993a28f2de69cf707023a8534a4020bcb4816a9f38eTransfer202987512021-10-17 3:22:4518 mins ago0x3dfa67489f74a9e6b64b2f0a3ac94b913cc45a87 IN 0x942c49276b6c3f45a5571c4c1a19b1a7ef3bb3cc22,555.25160839 MATIC0.0042
0x7f7fa8107005c96b89506ec5512709bbff0b9fe973b93edb127085784600c0c4Transfer202985212021-10-17 3:12:4528 mins ago0x76bd8e6d86077289fb472558d2e895230281a1db IN 0x942c49276b6c3f45a5571c4c1a19b1a7ef3bb3cc7.231301 MATIC0.0042
0x7d3a78da9746df3412288f6e9169054b2d029ff57c8dda7367277a0e75d1d686Transfer202985202021-10-17 3:12:4328 mins ago0x00a64b9f61752cea86a73b98f083cb5906491364 IN 0x942c49276b6c3f45a5571c4c1a19b1a7ef3bb3cc11,332.054958 MATIC0.0042
0x09fcca269f2e285dde4c7f7d778f4883fad4fbed1b455b424883057302f03327Transfer202978332021-10-17 2:42:4158 mins ago0x58f8d246e31357c7cbbf606e31e99aec16ace4e7 IN 0x942c49276b6c3f45a5571c4c1a19b1a7ef3bb3cc33.31560003 MATIC0.0042
0x8bf0e7b6a616ca925af542aab14864a5ac49853262c81170406aeea1b97fb41fTransfer202973592021-10-17 2:22:411 hr 18 mins ago0x20ae2c67494fe1f1c23b11a502a8fa858fbecc83 IN 0x942c49276b6c3f45a5571c4c1a19b1a7ef3bb3cc57,000 MATIC0.0042
0x7289c09a8cfaf3c4c788362f1415768a24f8686adceea424daf09a516a728ff7Transfer202970842021-10-17 2:12:391 hr 28 mins ago0xcac66b5e7794baf17c65c69eae64437369111f07 IN 0x942c49276b6c3f45a5571c4c1a19b1a7ef3bb3cc432.6594660979741 MATIC0.0042
0x313b2e397795bf8e9000c8c9779364a6ba4e99f81fd65586622921e961477ba1Transfer202968122021-10-17 2:02:411 hr 38 mins ago0x7c2652a87ce104cdc347e800d67d662c0c7f4a32 IN 0x942c49276b6c3f45a5571c4c1a19b1a7ef3bb3cc22.661111694182686 MATIC0.0042
0x387bf427151eae27a166065b97de43e8a9f43346107c096d0bc91d0e6af9796fTransfer202968112021-10-17 2:02:371 hr 38 mins ago0x8864b2f1a98a5d4a7799ebe61a4f653641619444 IN 0x942c49276b6c3f45a5571c4c1a19b1a7ef3bb3cc499.855 MATIC0.0042
0x9d78d846034118401fe89d9fdf4d22b3c0b7c025baf06e0caf851a6734590c7dTransfer202965642021-10-17 1:52:391 hr 48 mins ago0x2487c4409bbdbc604d63b0917e97379858deb961 IN 0x942c49276b6c3f45a5571c4c1a19b1a7ef3bb3cc3.355 MATIC0.0042
0x755eafc2b55d19e0603ad32b78533fff0f1ab39cbdf42db5163a313d9ce3648aTransfer202965642021-10-17 1:52:391 hr 48 mins ago0x50181b1b4b6ab7d9bffead06b8a335bd0fa7777b IN 0x942c49276b6c3f45a5571c4c1a19b1a7ef3bb3cc310.9958 MATIC0.0042
0x3c045057be8e9fca08062d9cceaab7208be248f5479ab408d1665d7f2ea5a3a6Transfer202960532021-10-17 1:32:372 hrs 8 mins ago0x6e9099b55cb2c0e244b5f03eed8e356a3c36eaeb IN 0x942c49276b6c3f45a5571c4c1a19b1a7ef3bb3cc211.77669095 MATIC0.0042
0xdd1b0069a8c6eea2ed4cad7d43b68aaf3291f3dc84992223e3636b33dfb490fbTransfer202955992021-10-17 1:12:332 hrs 29 mins ago0x3475c22da0b450490660687db0ed1492ad4943b4 IN 0x942c49276b6c3f45a5571c4c1a19b1a7ef3bb3cc9.955 MATIC0.0042
0xc9c52042426c6bbfe587c9baee97ce897dcd92f437b7fc28aa20d720b3f4a4a0Transfer202951252021-10-17 0:52:332 hrs 49 mins ago0x5c0851d62141dabccb972acd274c74ecbaf554d6 IN 0x942c49276b6c3f45a5571c4c1a19b1a7ef3bb3cc28.1058 MATIC0.0042
0x2ffd29ba451868e65a4de3fa4f2421cbfb8a82d53291c975c84756fe5da97a38Transfer202948422021-10-17 0:42:342 hrs 59 mins ago0xb5111b1832765d8c77cf379f74931e808b83969d IN 0x942c49276b6c3f45a5571c4c1a19b1a7ef3bb3cc53.2958 MATIC0.0042
0x6901dea4f87806873d40f3ace03eeab88aefbd11122f284286a4322b1bfe9b23Transfer202943642021-10-17 0:22:363 hrs 18 mins ago0xb6f8cbf69be9feee665c272d78b2a1be5775b0ca IN 0x942c49276b6c3f45a5571c4c1a19b1a7ef3bb3cc9.3327588 MATIC0.0042
0x1b91467ce68935cce374faf1ff1d27a5ea380c962e84425cdfd0d865cd35c871Transfer202943642021-10-17 0:22:363 hrs 18 mins ago0x001c8e86dfd81caa6d67441a2a6109b6185e3288 IN 0x942c49276b6c3f45a5571c4c1a19b1a7ef3bb3cc33.705 MATIC0.0042
0x3f7d25e1167ae9a5a22dc154bb368fad8ec1ef697cad9857a5710b75cba324feTransfer202943622021-10-17 0:22:323 hrs 19 mins ago0x5769edd4476d750f3ec9d3eb64e8a4569ae7ce99 IN 0x942c49276b6c3f45a5571c4c1a19b1a7ef3bb3cc502.9958 MATIC0.0042
0x534472354c54707b449da6239492b6eeb381de30d1edf2e89de7383553e42de8Transfer202941062021-10-17 0:12:303 hrs 29 mins ago0x03f372f728305e1a1196a0838505096de4eb1f20 IN 0x942c49276b6c3f45a5571c4c1a19b1a7ef3bb3cc37.4958 MATIC0.0042
0x9f03b458ae463503d5d8bbe02267be1a925b4bbafcecc744b86678cf517fce28Transfer202938422021-10-17 0:02:323 hrs 39 mins ago0xcccd0efa56a421f9316489e97102e785e7afcd66 IN 0x942c49276b6c3f45a5571c4c1a19b1a7ef3bb3cc45.72789023443426 MATIC0.0042
0x21cee3187104de98983d610d71376d35c5db0e9ffc77129475ad31e52c96f061Transfer202934422021-10-16 23:42:303 hrs 59 mins ago0x9247235d3580ff97ce034cdddae2b7a66efc8f3a IN 0x942c49276b6c3f45a5571c4c1a19b1a7ef3bb3cc19.9958 MATIC0.0042
0x39b79bf2f01b4e9225673f45d5593e7352b11095a1e49c9e06f6cbc0c595762eTransfer202929892021-10-16 23:22:304 hrs 19 mins ago0x12ba09d63861de21ac9750d2001fa60f8aef28be IN 0x942c49276b6c3f45a5571c4c1a19b1a7ef3bb3cc132.9958 MATIC0.0042
[ Download CSV Export 
Parent Txn Hash Block From To Value
Loading

Contract Name:
0 MATIC

Compiler Version
0

Optimization Enabled:
0 MATIC

Other Settings:
-NA-
Block Transaction Gas Used Reward
Age Block Fee Address BC Fee Address Voting Power Jailed Incoming
Block Uncle Number Difficulty Gas Used Reward
Loading
Loading
Make sure to use the "Vote Down" button for any spammy posts, and the "Vote Up" for interesting conversations.